Terminal Aerodrome Forecast
Issued by NWS

Home | Current Version | Previous Version | Text Only | Print | Product List | Glossary On
Versions: 1 2 3 4 5 6 7 8 9 10 11 12 13 14 15
000
FTUS45 KMSO 282320
TAFSMN
TAF
KSMN 282320Z 2900/2924 22006KT 3SM FU VCSH OVC120
     FM290400 VRB04KT 4SM FU BKN120
     FM291800 25010KT 4SM FU SCT150
     FM292200 22017G30KT P6SM SCT150
      AMD LTD TO CLD VIS AND WIND=

USA.gov is the U.S. government's official web portal to all federal, state and local government web resources and services.